Time;durP1;ratioP1;P1;durP2;ratioP2;P2;SDS_P1;SDS_P2;PMS_P1;PMS_P2;Temp;Humidity;BMP_temperature;BMP_pressure;BME280_temperature;BME280_humidity;BME280_pressure;Samples;Min_cycle;Max_cycle;Signal;HPM_P1;HPM_P2
2022/01/12 00:00:45;;;;;;;;;;;1.70;99.90;;;;;;5058487;28;19920;-61
2022/01/12 00:03:10;;;;;;;;;;;1.70;99.90;;;;;;5056701;28;19966;-59
2022/01/12 00:05:36;;;;;;;;;;;1.70;99.90;;;;;;5054843;28;19974;-59
2022/01/12 00:08:01;;;;;;;;;;;1.60;99.90;;;;;;5069239;28;20016;-59
2022/01/12 00:10:27;;;;;;;;;;;1.60;99.90;;;;;;5062736;28;19913;-60
2022/01/12 00:12:52;;;;;;;;;;;1.50;99.90;;;;;;5064417;28;19912;-61
2022/01/12 00:15:18;;;;;;;;;;;1.60;99.90;;;;;;5055500;28;19908;-61
2022/01/12 00:17:43;;;;;;;;;;;1.60;99.90;;;;;;5071072;28;20437;-59
2022/01/12 00:20:09;;;;;;;;;;;1.60;99.90;;;;;;5067364;28;19924;-60
2022/01/12 00:22:37;;;;;;;;;;;1.60;99.90;;;;;;5061200;28;19909;-60
2022/01/12 00:25:12;;;;;;;;;;;1.60;99.90;;;;;;5073188;28;19928;-61
2022/01/12 00:33:14;;;;;;;;;;;1.70;99.90;;;;;;5055907;28;19923;-60
2022/01/12 00:35:39;;;;;;;;;;;1.60;99.90;;;;;;5053966;28;19913;-61
2022/01/12 00:38:05;;;;;;;;;;;1.60;99.90;;;;;;5057311;28;20419;-60
2022/01/12 00:40:31;;;;;;;;;;;1.60;99.90;;;;;;5057690;28;19920;-61
2022/01/12 00:42:56;;;;;;;;;;;1.60;99.90;;;;;;5057527;28;20054;-62
2022/01/12 00:45:22;;;;;;;;;;;1.60;99.90;;;;;;5055615;28;20340;-60
2022/01/12 00:47:47;;;;;;;;;;;1.50;99.90;;;;;;5068168;28;20007;-60
2022/01/12 00:50:13;;;;;;;;;;;1.60;99.90;;;;;;5056884;28;20366;-59
2022/01/12 00:52:38;;;;;;;;;;;1.60;99.90;;;;;;5056943;28;19935;-60
2022/01/12 00:55:04;;;;;;;;;;;1.60;99.90;;;;;;5073051;28;19923;-60
2022/01/12 00:57:30;;;;;;;;;;;1.60;99.90;;;;;;5055480;28;19947;-60
2022/01/12 00:59:56;;;;;;;;;;;1.60;99.90;;;;;;5068758;28;19935;-59
2022/01/12 01:02:21;;;;;;;;;;;1.60;99.90;;;;;;5054431;28;19915;-60
2022/01/12 01:04:47;;;;;;;;;;;1.70;99.90;;;;;;5057711;28;20324;-60
2022/01/12 01:07:12;;;;;;;;;;;1.70;99.90;;;;;;5056867;28;19948;-59
2022/01/12 01:09:43;;;;;;;;;;;1.70;99.90;;;;;;5056634;28;20357;-61
2022/01/12 01:12:09;;;;;;;;;;;1.70;99.90;;;;;;5055346;28;19999;-60
2022/01/12 01:14:47;;;;;;;;;;;1.70;99.90;;;;;;5053780;28;20356;-61
2022/01/12 01:25:32;;;;;;;;;;;1.70;99.90;;;;;;5060913;28;19922;-59
2022/01/12 01:27:58;;;;;;;;;;;1.70;99.90;;;;;;5062795;28;19913;-60
2022/01/12 01:30:24;;;;;;;;;;;1.60;99.90;;;;;;5056141;28;19913;-60
2022/01/12 01:32:50;;;;;;;;;;;1.60;99.90;;;;;;5053798;28;19920;-60
2022/01/12 01:35:15;;;;;;;;;;;1.60;99.90;;;;;;5067416;28;19951;-58
2022/01/12 01:37:41;;;;;;;;;;;1.60;99.90;;;;;;5065172;28;20372;-59
2022/01/12 01:40:08;;;;;;;;;;;1.60;99.90;;;;;;5060883;28;19974;-60
2022/01/12 01:53:30;;;;;;;;;;;1.70;99.90;;;;;;5067699;28;19955;-61
2022/01/12 01:55:55;;;;;;;;;;;1.70;99.90;;;;;;5055665;28;19912;-61
2022/01/12 01:58:21;;;;;;;;;;;1.70;99.90;;;;;;5073676;28;19959;-59
2022/01/12 02:00:46;;;;;;;;;;;1.80;99.90;;;;;;5055811;28;20412;-61
2022/01/12 02:03:12;;;;;;;;;;;1.80;99.90;;;;;;5053226;28;19912;-60
2022/01/12 02:05:38;;;;;;;;;;;1.80;99.90;;;;;;5067989;28;19998;-61
2022/01/12 02:08:04;;;;;;;;;;;1.80;99.90;;;;;;5055247;28;19908;-61
2022/01/12 02:10:30;;;;;;;;;;;1.90;99.90;;;;;;5062770;28;19924;-61
2022/01/12 02:12:55;;;;;;;;;;;1.90;99.90;;;;;;5064762;28;20003;-60
2022/01/12 02:15:22;;;;;;;;;;;1.90;99.90;;;;;;5062800;28;20000;-60
2022/01/12 02:40:08;;;;;;;;;;;1.90;99.90;;;;;;5056175;28;19947;-60
2022/01/12 02:42:36;;;;;;;;;;;1.90;99.90;;;;;;5054129;28;19948;-61
2022/01/12 02:55:47;;;;;;;;;;;1.80;99.90;;;;;;5056056;28;19967;-61
2022/01/12 02:58:12;;;;;;;;;;;1.80;99.90;;;;;;5054851;28;19917;-61
2022/01/12 03:01:02;;;;;;;;;;;1.80;99.90;;;;;;5055231;28;19920;-61
2022/01/12 03:03:32;;;;;;;;;;;1.80;99.90;;;;;;5055479;28;20007;-61
2022/01/12 03:05:59;;;;;;;;;;;1.80;99.90;;;;;;5052570;28;19917;-60
2022/01/12 03:08:26;;;;;;;;;;;1.80;99.90;;;;;;5053041;28;20400;-61
2022/01/12 03:10:52;;;;;;;;;;;1.90;99.90;;;;;;5055511;28;19931;-61
2022/01/12 03:13:18;;;;;;;;;;;1.90;99.90;;;;;;5054899;28;19939;-62
2022/01/12 03:15:43;;;;;;;;;;;1.90;99.90;;;;;;5056067;28;19916;-61
2022/01/12 03:18:09;;;;;;;;;;;1.90;99.90;;;;;;5053780;28;19913;-59
2022/01/12 03:20:35;;;;;;;;;;;2.00;99.90;;;;;;5054145;28;19923;-61
2022/01/12 03:23:00;;;;;;;;;;;2.00;99.90;;;;;;5069538;28;20277;-60
2022/01/12 03:25:26;;;;;;;;;;;2.10;99.90;;;;;;5061055;28;19912;-60
2022/01/12 03:27:56;;;;;;;;;;;2.00;99.90;;;;;;5060506;28;20331;-60
2022/01/12 03:30:22;;;;;;;;;;;2.00;99.90;;;;;;5067365;28;19913;-61
2022/01/12 03:33:02;;;;;;;;;;;2.10;99.90;;;;;;5070578;28;19912;-61
2022/01/12 03:35:47;;;;;;;;;;;2.10;99.90;;;;;;5056230;28;20402;-60
2022/01/12 03:38:20;;;;;;;;;;;2.10;99.90;;;;;;5058406;28;19908;-62
2022/01/12 03:40:46;;;;;;;;;;;2.00;99.90;;;;;;5059365;28;19963;-61
2022/01/12 03:43:11;;;;;;;;;;;2.00;99.90;;;;;;5058133;28;20385;-61
2022/01/12 03:45:37;;;;;;;;;;;2.00;99.90;;;;;;5058531;28;19959;-62
2022/01/12 03:48:02;;;;;;;;;;;2.10;99.90;;;;;;5056174;28;19959;-61
2022/01/12 03:50:28;;;;;;;;;;;2.10;99.90;;;;;;5055758;28;19913;-61
2022/01/12 03:52:53;;;;;;;;;;;2.10;99.90;;;;;;5058351;28;19930;-61
2022/01/12 03:55:19;;;;;;;;;;;2.10;99.90;;;;;;5058062;28;20377;-61
2022/01/12 03:57:44;;;;;;;;;;;2.10;99.90;;;;;;5058231;28;19927;-61
2022/01/12 04:00:10;;;;;;;;;;;2.10;99.90;;;;;;5055426;28;19917;-61
2022/01/12 04:02:36;;;;;;;;;;;2.10;99.90;;;;;;5070058;28;20442;-60
2022/01/12 04:10:20;;;;;;;;;;;2.10;99.90;;;;;;5062945;28;19955;-61
2022/01/12 04:12:45;;;;;;;;;;;2.10;99.90;;;;;;5066583;28;19951;-60
2022/01/12 04:15:11;;;;;;;;;;;2.10;99.90;;;;;;5069786;28;20361;-59
2022/01/12 04:17:36;;;;;;;;;;;2.10;99.90;;;;;;5054088;28;19970;-61
2022/01/12 04:20:03;;;;;;;;;;;2.10;99.90;;;;;;5057298;28;19917;-61
2022/01/12 04:25:13;;;;;;;;;;;2.00;99.90;;;;;;5057907;28;19920;-60
2022/01/12 04:27:39;;;;;;;;;;;2.10;99.90;;;;;;5057597;28;19912;-60
2022/01/12 04:30:05;;;;;;;;;;;2.10;99.90;;;;;;5055745;28;20328;-60
2022/01/12 04:32:35;;;;;;;;;;;2.10;99.90;;;;;;5054200;28;19913;-60
2022/01/12 04:35:00;;;;;;;;;;;2.00;99.90;;;;;;5057277;28;19908;-61
2022/01/12 04:37:26;;;;;;;;;;;2.10;99.90;;;;;;5057747;28;19920;-60
2022/01/12 04:39:51;;;;;;;;;;;2.00;99.90;;;;;;5058508;28;19939;-60
2022/01/12 04:42:16;;;;;;;;;;;2.00;99.90;;;;;;5068594;28;20411;-60
2022/01/12 04:44:45;;;;;;;;;;;2.00;99.90;;;;;;5053283;28;19912;-60
2022/01/12 04:47:26;;;;;;;;;;;2.10;99.90;;;;;;5056684;28;19951;-61
2022/01/12 04:49:52;;;;;;;;;;;2.10;99.90;;;;;;5067699;28;20009;-61
2022/01/12 04:52:17;;;;;;;;;;;2.00;99.90;;;;;;5066017;28;20722;-60
2022/01/12 04:54:43;;;;;;;;;;;2.00;99.90;;;;;;5064937;28;19999;-62
2022/01/12 04:57:08;;;;;;;;;;;2.00;99.90;;;;;;5055714;28;19913;-60
2022/01/12 04:59:39;;;;;;;;;;;2.00;99.90;;;;;;5054214;28;19947;-61
2022/01/12 05:06:21;;;;;;;;;;;2.00;99.90;;;;;;5056508;28;19991;-60
2022/01/12 05:07:45;;;;;;;;;;;2.00;99.90;;;;;;5057757;28;20404;-60
2022/01/12 05:13:05;;;;;;;;;;;2.00;99.90;;;;;;5054160;28;19917;-61
2022/01/12 05:15:34;;;;;;;;;;;2.00;99.90;;;;;;5054495;28;20457;-61
2022/01/12 05:18:00;;;;;;;;;;;2.00;99.90;;;;;;5050122;28;20378;-61
2022/01/12 05:20:26;;;;;;;;;;;2.00;99.90;;;;;;5049406;28;19921;-61
2022/01/12 05:22:51;;;;;;;;;;;2.10;99.90;;;;;;5054257;28;19998;-61
2022/01/12 05:25:17;;;;;;;;;;;2.10;99.90;;;;;;5054596;28;20459;-60
2022/01/12 05:27:44;;;;;;;;;;;2.10;99.90;;;;;;5054569;28;19944;-60
2022/01/12 05:30:10;;;;;;;;;;;2.10;99.90;;;;;;5052524;28;19947;-59
2022/01/12 05:32:35;;;;;;;;;;;2.10;99.90;;;;;;5051132;28;19964;-61
2022/01/12 05:35:04;;;;;;;;;;;2.10;99.90;;;;;;5053566;28;19913;-61
2022/01/12 05:37:29;;;;;;;;;;;2.20;99.90;;;;;;5054343;28;19913;-61
2022/01/12 05:39:55;;;;;;;;;;;2.20;99.90;;;;;;5054105;28;19928;-60
2022/01/12 05:42:21;;;;;;;;;;;2.20;99.90;;;;;;5053617;28;19916;-61
2022/01/12 05:44:46;;;;;;;;;;;2.20;99.90;;;;;;5050066;28;19916;-61
2022/01/12 05:47:29;;;;;;;;;;;2.20;99.90;;;;;;5053193;28;19974;-61
2022/01/12 05:49:55;;;;;;;;;;;2.20;99.90;;;;;;5066283;28;19919;-62
2022/01/12 05:52:20;;;;;;;;;;;2.20;99.90;;;;;;5058994;28;20290;-60
2022/01/12 05:54:46;;;;;;;;;;;2.20;99.90;;;;;;5055961;28;19920;-61
2022/01/12 05:57:11;;;;;;;;;;;2.10;99.90;;;;;;5053847;28;19975;-61
2022/01/12 05:59:37;;;;;;;;;;;2.10;99.90;;;;;;5067472;28;19927;-60
2022/01/12 06:02:03;;;;;;;;;;;2.10;99.90;;;;;;5055175;28;19916;-60
2022/01/12 06:04:28;;;;;;;;;;;2.10;99.90;;;;;;5064374;28;19927;-60
2022/01/12 06:06:56;;;;;;;;;;;2.10;99.90;;;;;;5068640;28;19951;-66
2022/01/12 06:09:22;;;;;;;;;;;2.10;99.90;;;;;;5066979;28;20391;-65
2022/01/12 06:11:48;;;;;;;;;;;2.10;99.90;;;;;;5051269;28;19912;-65
2022/01/12 06:14:18;;;;;;;;;;;2.10;99.90;;;;;;5055127;28;19924;-63
2022/01/12 06:16:44;;;;;;;;;;;2.10;99.90;;;;;;5064830;28;20286;-64
2022/01/12 06:19:09;;;;;;;;;;;2.10;99.90;;;;;;5060540;28;19924;-64
2022/01/12 06:21:35;;;;;;;;;;;2.10;99.90;;;;;;5055104;28;20118;-64
2022/01/12 06:24:00;;;;;;;;;;;2.10;99.90;;;;;;5053327;28;19916;-64
2022/01/12 06:26:26;;;;;;;;;;;2.10;99.90;;;;;;5069337;28;20000;-64
2022/01/12 06:29:14;;;;;;;;;;;2.10;99.90;;;;;;5068798;28;19926;-63
2022/01/12 06:31:40;;;;;;;;;;;2.10;99.90;;;;;;5064008;28;19919;-65
2022/01/12 06:34:06;;;;;;;;;;;2.10;99.90;;;;;;5057143;28;19923;-65
2022/01/12 06:36:31;;;;;;;;;;;2.10;99.90;;;;;;5056891;28;19917;-62
2022/01/12 06:38:57;;;;;;;;;;;2.10;99.90;;;;;;5060616;28;20360;-64
2022/01/12 06:41:23;;;;;;;;;;;2.10;99.90;;;;;;5057196;28;20027;-63
2022/01/12 06:43:49;;;;;;;;;;;2.10;99.90;;;;;;5068187;28;20357;-65
2022/01/12 06:46:17;;;;;;;;;;;2.00;99.90;;;;;;5059748;28;19988;-63
2022/01/12 06:48:43;;;;;;;;;;;2.00;99.90;;;;;;5060232;28;20416;-65
2022/01/12 06:51:08;;;;;;;;;;;2.00;99.90;;;;;;5064271;28;19920;-64
2022/01/12 06:53:34;;;;;;;;;;;2.00;99.90;;;;;;5057053;28;19912;-65
2022/01/12 06:56:00;;;;;;;;;;;2.00;99.90;;;;;;5062969;28;19923;-65
2022/01/12 06:58:25;;;;;;;;;;;2.00;99.90;;;;;;5061341;28;20339;-65
2022/01/12 07:00:51;;;;;;;;;;;2.00;99.90;;;;;;5062515;28;19921;-65
2022/01/12 07:03:16;;;;;;;;;;;2.00;99.90;;;;;;5062775;28;19912;-63
2022/01/12 07:05:42;;;;;;;;;;;2.00;99.90;;;;;;5059988;28;19962;-64
2022/01/12 07:08:07;;;;;;;;;;;2.00;99.90;;;;;;5063921;28;19917;-64
2022/01/12 07:10:33;;;;;;;;;;;2.00;99.90;;;;;;5061210;28;19913;-66
2022/01/12 07:12:58;;;;;;;;;;;2.00;99.90;;;;;;5063549;28;20297;-64
2022/01/12 07:15:24;;;;;;;;;;;2.00;99.90;;;;;;5059859;28;19924;-63
2022/01/12 07:17:50;;;;;;;;;;;2.10;99.90;;;;;;5061457;28;19998;-65
2022/01/12 07:20:16;;;;;;;;;;;2.10;99.90;;;;;;5061998;28;19920;-64
2022/01/12 07:22:41;;;;;;;;;;;2.10;99.90;;;;;;5061856;28;19913;-64
2022/01/12 07:25:07;;;;;;;;;;;2.10;99.90;;;;;;5063124;28;19912;-64
2022/01/12 07:27:33;;;;;;;;;;;2.10;99.90;;;;;;5063271;28;20336;-65
2022/01/12 07:29:59;;;;;;;;;;;2.10;99.90;;;;;;5063838;28;19919;-64
2022/01/12 07:32:24;;;;;;;;;;;2.10;99.90;;;;;;5065142;28;20373;-64
2022/01/12 07:34:50;;;;;;;;;;;2.10;99.90;;;;;;5061928;28;19920;-65
2022/01/12 07:37:16;;;;;;;;;;;2.10;99.90;;;;;;5063654;28;19928;-65
2022/01/12 07:39:42;;;;;;;;;;;2.10;99.90;;;;;;5093723;28;19920;-66
2022/01/12 07:42:07;;;;;;;;;;;2.10;99.90;;;;;;5061779;28;20403;-63
2022/01/12 07:44:33;;;;;;;;;;;2.10;99.90;;;;;;5060200;28;19912;-63
2022/01/12 07:46:58;;;;;;;;;;;2.10;99.90;;;;;;5062070;28;19958;-65
2022/01/12 07:49:24;;;;;;;;;;;2.10;99.90;;;;;;5061628;28;19917;-63
2022/01/12 07:51:49;;;;;;;;;;;2.10;99.90;;;;;;5064956;28;19928;-65
2022/01/12 07:54:15;;;;;;;;;;;2.10;99.90;;;;;;5059710;28;20266;-64
2022/01/12 07:56:40;;;;;;;;;;;2.00;99.90;;;;;;5059618;28;19916;-63
2022/01/12 07:59:06;;;;;;;;;;;2.00;99.90;;;;;;5061184;28;19916;-63
2022/01/12 08:01:31;;;;;;;;;;;2.00;99.90;;;;;;5060471;28;19921;-62
2022/01/12 08:03:57;;;;;;;;;;;2.00;99.90;;;;;;5059880;28;20556;-63
2022/01/12 08:06:22;;;;;;;;;;;2.00;99.90;;;;;;5061908;28;19912;-63
2022/01/12 08:08:48;;;;;;;;;;;2.00;99.90;;;;;;5061501;28;19912;-62
2022/01/12 08:11:13;;;;;;;;;;;2.00;99.90;;;;;;5061677;28;20012;-62
2022/01/12 08:13:39;;;;;;;;;;;2.00;99.90;;;;;;5090301;28;19946;-62
2022/01/12 08:16:05;;;;;;;;;;;2.00;99.90;;;;;;5064051;28;19912;-63
2022/01/12 08:18:30;;;;;;;;;;;2.00;99.90;;;;;;5057513;28;19917;-63
2022/01/12 08:20:56;;;;;;;;;;;2.00;99.90;;;;;;5058245;28;19969;-62
2022/01/12 08:23:21;;;;;;;;;;;2.00;99.90;;;;;;5059468;28;20641;-62
2022/01/12 08:25:47;;;;;;;;;;;2.00;99.90;;;;;;5064664;28;20381;-62
2022/01/12 08:28:13;;;;;;;;;;;2.00;99.90;;;;;;5065838;28;19912;-61
2022/01/12 08:30:39;;;;;;;;;;;2.10;99.90;;;;;;5065597;28;19916;-62
2022/01/12 08:33:04;;;;;;;;;;;2.10;99.90;;;;;;5054522;28;20308;-62
2022/01/12 08:35:30;;;;;;;;;;;2.10;99.90;;;;;;5069047;28;19913;-61
2022/01/12 08:37:57;;;;;;;;;;;2.10;99.90;;;;;;5057055;28;19919;-62
2022/01/12 08:40:23;;;;;;;;;;;2.20;99.90;;;;;;5062576;28;19921;-63
2022/01/12 08:42:49;;;;;;;;;;;2.20;99.90;;;;;;5064898;28;19913;-64
2022/01/12 08:45:15;;;;;;;;;;;2.30;99.90;;;;;;5055636;28;19913;-60
2022/01/12 08:47:40;;;;;;;;;;;2.30;99.90;;;;;;5053299;28;20373;-63
2022/01/12 08:50:07;;;;;;;;;;;2.30;99.90;;;;;;5056273;28;19916;-62
2022/01/12 08:52:32;;;;;;;;;;;2.40;99.90;;;;;;5056905;28;19923;-63
2022/01/12 08:54:59;;;;;;;;;;;2.50;99.90;;;;;;5057070;28;19913;-62
2022/01/12 08:57:25;;;;;;;;;;;2.50;99.90;;;;;;5056813;28;19912;-63
2022/01/12 08:59:50;;;;;;;;;;;2.60;99.90;;;;;;5052486;28;19916;-62
2022/01/12 09:02:16;;;;;;;;;;;2.60;99.90;;;;;;5056208;28;19963;-63
2022/01/12 09:04:42;;;;;;;;;;;2.70;99.90;;;;;;5057099;28;19959;-63
2022/01/12 09:07:08;;;;;;;;;;;2.70;99.90;;;;;;5056912;28;19921;-64
2022/01/12 09:09:33;;;;;;;;;;;2.80;99.90;;;;;;5056616;28;20328;-63
2022/01/12 09:11:59;;;;;;;;;;;2.80;99.90;;;;;;5054052;28;19995;-63
2022/01/12 09:14:24;;;;;;;;;;;2.80;99.90;;;;;;5067179;28;19908;-64
2022/01/12 09:16:51;;;;;;;;;;;2.90;99.90;;;;;;5057364;28;19963;-63
2022/01/12 09:19:16;;;;;;;;;;;2.90;99.90;;;;;;5059842;28;19920;-64
2022/01/12 09:21:42;;;;;;;;;;;3.00;99.90;;;;;;5065218;28;19925;-62
2022/01/12 09:24:07;;;;;;;;;;;3.10;99.90;;;;;;5067923;28;20304;-63
2022/01/12 09:26:33;;;;;;;;;;;3.20;99.90;;;;;;5054182;28;19951;-64
2022/01/12 09:29:02;;;;;;;;;;;3.20;99.90;;;;;;5055717;28;19977;-63
2022/01/12 09:31:27;;;;;;;;;;;3.30;99.90;;;;;;5056668;28;19917;-64
2022/01/12 09:33:53;;;;;;;;;;;3.40;99.90;;;;;;5056311;28;19979;-63
2022/01/12 09:36:18;;;;;;;;;;;3.50;99.90;;;;;;5055810;28;20003;-61
2022/01/12 09:38:44;;;;;;;;;;;3.60;99.90;;;;;;5053212;28;19908;-63
2022/01/12 09:41:09;;;;;;;;;;;3.70;99.90;;;;;;5066845;28;19948;-64
2022/01/12 09:43:36;;;;;;;;;;;3.70;99.90;;;;;;5057312;28;19909;-62
2022/01/12 09:46:02;;;;;;;;;;;3.80;99.90;;;;;;5056199;28;19965;-62
2022/01/12 09:48:33;;;;;;;;;;;3.80;99.90;;;;;;5055578;28;19925;-63
2022/01/12 09:51:01;;;;;;;;;;;3.70;99.90;;;;;;5053772;28;19917;-63
2022/01/12 09:53:28;;;;;;;;;;;3.80;99.90;;;;;;5065548;28;19948;-64
2022/01/12 09:55:54;;;;;;;;;;;3.90;99.90;;;;;;5056464;28;20598;-62
2022/01/12 09:58:19;;;;;;;;;;;3.90;99.90;;;;;;5060926;28;20005;-63
2022/01/12 10:01:05;;;;;;;;;;;3.90;99.90;;;;;;5064352;28;19947;-64
2022/01/12 10:03:30;;;;;;;;;;;3.90;99.90;;;;;;5065780;28;19916;-64
2022/01/12 10:05:56;;;;;;;;;;;3.90;99.90;;;;;;5053202;28;19912;-63
2022/01/12 10:08:22;;;;;;;;;;;4.00;99.90;;;;;;5054280;28;19956;-64
2022/01/12 10:11:07;;;;;;;;;;;4.00;99.90;;;;;;5056410;28;19995;-63
2022/01/12 10:13:32;;;;;;;;;;;4.10;99.90;;;;;;5055429;28;20370;-64
2022/01/12 10:16:09;;;;;;;;;;;4.20;99.90;;;;;;5055937;28;19919;-63
2022/01/12 10:18:44;;;;;;;;;;;4.30;99.90;;;;;;5055046;28;20007;-64
2022/01/12 10:21:10;;;;;;;;;;;4.30;99.90;;;;;;5066887;28;19929;-63
2022/01/12 10:23:38;;;;;;;;;;;4.40;99.90;;;;;;5053110;28;19916;-63
2022/01/12 10:26:04;;;;;;;;;;;4.40;99.90;;;;;;5056168;28;19915;-63
2022/01/12 10:28:30;;;;;;;;;;;4.50;99.90;;;;;;5055309;28;19916;-63
2022/01/12 10:30:57;;;;;;;;;;;4.50;99.90;;;;;;5060414;28;19917;-64
2022/01/12 10:33:23;;;;;;;;;;;4.50;99.90;;;;;;5071256;28;19912;-63
2022/01/12 10:35:52;;;;;;;;;;;4.50;99.90;;;;;;5057642;28;19967;-64
2022/01/12 10:38:18;;;;;;;;;;;4.60;99.90;;;;;;5070992;28;19966;-64
2022/01/12 10:40:45;;;;;;;;;;;4.60;99.90;;;;;;5068156;28;19916;-63
2022/01/12 10:43:25;;;;;;;;;;;4.70;99.90;;;;;;5067838;28;19917;-63
2022/01/12 10:45:51;;;;;;;;;;;4.80;99.90;;;;;;5067060;28;19913;-63
2022/01/12 10:48:16;;;;;;;;;;;4.80;99.90;;;;;;5058799;28;19986;-64
2022/01/12 10:50:52;;;;;;;;;;;4.90;99.90;;;;;;5055756;28;19927;-62
2022/01/12 10:53:27;;;;;;;;;;;4.80;99.90;;;;;;5070561;28;19912;-63
2022/01/12 10:56:12;;;;;;;;;;;4.90;99.90;;;;;;5069365;28;19966;-64
2022/01/12 10:58:40;;;;;;;;;;;5.00;99.90;;;;;;5068098;28;19916;-64
2022/01/12 11:01:06;;;;;;;;;;;4.90;99.90;;;;;;5064161;28;19921;-65
2022/01/12 11:03:32;;;;;;;;;;;5.00;99.90;;;;;;5059315;28;19912;-63
2022/01/12 11:05:58;;;;;;;;;;;5.00;99.90;;;;;;5056064;28;19913;-63
2022/01/12 11:08:24;;;;;;;;;;;5.10;99.90;;;;;;5057631;28;19962;-63
2022/01/12 11:10:50;;;;;;;;;;;5.10;99.90;;;;;;5068071;28;19954;-63
2022/01/12 11:13:16;;;;;;;;;;;5.10;99.90;;;;;;5063202;28;19912;-64
2022/01/12 11:15:42;;;;;;;;;;;5.10;99.90;;;;;;5059190;28;20559;-63
2022/01/12 11:18:08;;;;;;;;;;;5.10;99.90;;;;;;5056190;28;19978;-64
2022/01/12 11:20:33;;;;;;;;;;;5.10;99.90;;;;;;5070192;28;19916;-64
2022/01/12 11:23:02;;;;;;;;;;;5.10;99.90;;;;;;5069584;28;19909;-63
2022/01/12 11:25:29;;;;;;;;;;;5.10;99.90;;;;;;5060515;28;19959;-63
2022/01/12 11:28:07;;;;;;;;;;;5.10;99.90;;;;;;5058972;28;20297;-63
2022/01/12 11:30:33;;;;;;;;;;;5.10;99.90;;;;;;5058710;28;19912;-64
2022/01/12 11:32:59;;;;;;;;;;;5.10;99.90;;;;;;5055342;28;19999;-64
2022/01/12 11:35:29;;;;;;;;;;;5.20;99.90;;;;;;5056634;28;19923;-64
2022/01/12 11:37:59;;;;;;;;;;;5.20;99.90;;;;;;5069049;28;19909;-64
2022/01/12 11:40:33;;;;;;;;;;;5.30;99.90;;;;;;5060982;28;19917;-62
2022/01/12 11:42:59;;;;;;;;;;;5.30;99.90;;;;;;5058556;28;19996;-64
2022/01/12 11:45:24;;;;;;;;;;;5.30;99.90;;;;;;5058432;28;20492;-64
2022/01/12 11:47:51;;;;;;;;;;;5.30;99.90;;;;;;5055668;28;19939;-64
2022/01/12 11:50:16;;;;;;;;;;;5.40;99.90;;;;;;5069859;28;19995;-65
2022/01/12 11:52:42;;;;;;;;;;;5.40;99.90;;;;;;5058594;28;19991;-65
2022/01/12 11:55:07;;;;;;;;;;;5.40;99.90;;;;;;5057994;28;19920;-64
2022/01/12 11:57:35;;;;;;;;;;;5.40;99.90;;;;;;5056934;28;19917;-64
2022/01/12 12:00:11;;;;;;;;;;;5.50;99.90;;;;;;5069657;28;19916;-65
2022/01/12 12:02:38;;;;;;;;;;;5.50;99.90;;;;;;5055464;28;19923;-65
2022/01/12 12:05:11;;;;;;;;;;;5.50;99.90;;;;;;5089917;28;19954;-64
2022/01/12 12:07:52;;;;;;;;;;;5.50;99.90;;;;;;5063123;28;20555;-64
2022/01/12 12:10:21;;;;;;;;;;;5.50;99.90;;;;;;5061026;28;19923;-65
2022/01/12 12:12:47;;;;;;;;;;;5.60;99.90;;;;;;5057793;28;20270;-64
2022/01/12 12:15:13;;;;;;;;;;;5.60;99.90;;;;;;5055220;28;19959;-62
2022/01/12 12:17:40;;;;;;;;;;;5.60;99.90;;;;;;5068790;28;19908;-64
2022/01/12 12:20:08;;;;;;;;;;;5.50;99.90;;;;;;5057121;28;19956;-64
2022/01/12 12:22:34;;;;;;;;;;;5.50;99.90;;;;;;5055874;28;20845;-62
2022/01/12 12:25:09;;;;;;;;;;;5.50;99.90;;;;;;5059148;28;19958;-64
2022/01/12 12:27:36;;;;;;;;;;;5.50;99.90;;;;;;5061354;28;20007;-64
2022/01/12 12:30:03;;;;;;;;;;;5.50;99.90;;;;;;5061408;28;19912;-64
2022/01/12 12:32:36;;;;;;;;;;;5.50;99.90;;;;;;5058094;28;20312;-64
2022/01/12 12:35:04;;;;;;;;;;;5.50;99.90;;;;;;5068196;28;19982;-64
2022/01/12 12:37:40;;;;;;;;;;;5.50;99.90;;;;;;5059671;28;19912;-64
2022/01/12 12:40:14;;;;;;;;;;;5.50;99.90;;;;;;5061804;28;19923;-64
2022/01/12 12:42:40;;;;;;;;;;;5.60;99.90;;;;;;5060029;28;19963;-66
2022/01/12 12:45:05;;;;;;;;;;;5.70;99.90;;;;;;5060542;28;19912;-65
2022/01/12 12:47:32;;;;;;;;;;;5.90;99.90;;;;;;5057668;28;20390;-64
2022/01/12 12:50:01;;;;;;;;;;;5.90;99.90;;;;;;5061119;28;19912;-65
2022/01/12 12:52:28;;;;;;;;;;;6.00;99.90;;;;;;5057902;28;19990;-66
2022/01/12 12:54:54;;;;;;;;;;;6.00;99.90;;;;;;5060087;28;19912;-65
2022/01/12 12:57:21;;;;;;;;;;;6.00;99.90;;;;;;5059193;28;19937;-65
2022/01/12 13:00:05;;;;;;;;;;;6.00;99.90;;;;;;5057123;28;19912;-66
2022/01/12 13:02:38;;;;;;;;;;;6.10;99.90;;;;;;5059534;27;19928;-64
2022/01/12 13:05:05;;;;;;;;;;;6.10;99.90;;;;;;5064442;28;19963;-65
2022/01/12 13:07:34;;;;;;;;;;;6.10;99.90;;;;;;5066322;28;20015;-63
2022/01/12 13:10:07;;;;;;;;;;;6.20;99.90;;;;;;5068482;28;20580;-64
2022/01/12 13:12:46;;;;;;;;;;;6.20;99.90;;;;;;5060873;28;19912;-63
2022/01/12 13:15:17;;;;;;;;;;;6.30;99.90;;;;;;5061747;28;19921;-66
2022/01/12 13:17:42;;;;;;;;;;;6.30;99.90;;;;;;5063493;28;19921;-64
2022/01/12 13:22:46;;;;;;;;;;;6.30;99.90;;;;;;5068992;28;20408;-65
2022/01/12 13:25:15;;;;;;;;;;;6.30;99.90;;;;;;5069860;28;19923;-64
2022/01/12 13:27:41;;;;;;;;;;;6.20;99.90;;;;;;5065914;28;20373;-64
2022/01/12 13:30:09;;;;;;;;;;;6.20;99.90;;;;;;5061050;28;19916;-65
2022/01/12 13:32:37;;;;;;;;;;;6.20;99.90;;;;;;5071406;28;20310;-65
2022/01/12 13:35:05;;;;;;;;;;;6.30;99.90;;;;;;5058631;28;20388;-66
2022/01/12 13:37:31;;;;;;;;;;;6.30;99.90;;;;;;5064997;28;19916;-63
2022/01/12 13:40:04;;;;;;;;;;;6.30;99.90;;;;;;5053949;28;19912;-66
2022/01/12 13:42:30;;;;;;;;;;;6.40;99.90;;;;;;5061678;28;19920;-65
2022/01/12 13:45:07;;;;;;;;;;;6.40;99.90;;;;;;5060422;28;19920;-64
2022/01/12 13:47:37;;;;;;;;;;;6.40;99.90;;;;;;5059712;28;20424;-64
2022/01/12 13:50:08;;;;;;;;;;;6.40;99.90;;;;;;5063389;28;19922;-64
2022/01/12 13:52:34;;;;;;;;;;;6.40;99.90;;;;;;5061937;28;19908;-64
2022/01/12 13:55:10;;;;;;;;;;;6.40;99.90;;;;;;5061864;28;20359;-63
2022/01/12 13:57:36;;;;;;;;;;;6.40;99.90;;;;;;5062729;28;20083;-64
2022/01/12 14:00:03;;;;;;;;;;;6.40;99.90;;;;;;5059660;28;19912;-65
2022/01/12 14:02:30;;;;;;;;;;;6.30;99.90;;;;;;5059723;28;19916;-63
2022/01/12 14:05:06;;;;;;;;;;;6.30;99.90;;;;;;5057279;28;19915;-66
2022/01/12 14:07:37;;;;;;;;;;;6.30;99.90;;;;;;5066081;28;19919;-67
2022/01/12 14:10:04;;;;;;;;;;;6.40;99.90;;;;;;5062027;28;19935;-65
2022/01/12 14:12:29;;;;;;;;;;;6.30;99.90;;;;;;5060600;28;19916;-62
2022/01/12 14:14:55;;;;;;;;;;;6.40;99.90;;;;;;5057322;28;20393;-63
2022/01/12 14:17:30;;;;;;;;;;;6.40;99.90;;;;;;5064645;28;19917;-63
2022/01/12 14:19:59;;;;;;;;;;;6.30;99.90;;;;;;5058312;28;19917;-64
2022/01/12 14:22:25;;;;;;;;;;;6.30;99.90;;;;;;5066265;28;19919;-64
2022/01/12 14:24:58;;;;;;;;;;;6.40;99.90;;;;;;5066968;28;19920;-65
2022/01/12 14:27:24;;;;;;;;;;;6.30;99.90;;;;;;5057893;28;20007;-64
2022/01/12 14:29:49;;;;;;;;;;;6.30;99.90;;;;;;5065431;28;20417;-63
2022/01/12 14:32:15;;;;;;;;;;;6.30;99.90;;;;;;5075432;28;20077;-65
2022/01/12 14:34:41;;;;;;;;;;;6.30;99.90;;;;;;5059022;28;19956;-63
2022/01/12 14:37:07;;;;;;;;;;;6.30;99.90;;;;;;5055480;28;19912;-63
2022/01/12 14:39:32;;;;;;;;;;;6.20;99.90;;;;;;5055294;28;20571;-64
2022/01/12 14:41:58;;;;;;;;;;;6.20;99.90;;;;;;5052173;28;19925;-64
2022/01/12 14:44:28;;;;;;;;;;;6.20;99.90;;;;;;5053596;28;19990;-64
2022/01/12 14:46:54;;;;;;;;;;;6.20;99.90;;;;;;5065242;28;19928;-64
2022/01/12 14:49:20;;;;;;;;;;;6.20;99.90;;;;;;5058948;28;19916;-65
2022/01/12 14:51:45;;;;;;;;;;;6.20;99.90;;;;;;5055038;28;19920;-63
2022/01/12 14:54:11;;;;;;;;;;;6.20;99.90;;;;;;5054024;28;19920;-63
2022/01/12 14:56:36;;;;;;;;;;;6.10;99.90;;;;;;5052597;28;20377;-64
2022/01/12 14:59:02;;;;;;;;;;;6.10;99.90;;;;;;5054706;28;19912;-63
2022/01/12 15:01:27;;;;;;;;;;;6.00;99.90;;;;;;5055288;28;19921;-62
2022/01/12 15:03:53;;;;;;;;;;;6.00;99.90;;;;;;5056683;28;20440;-63
2022/01/12 15:06:18;;;;;;;;;;;6.10;99.90;;;;;;5066741;28;19920;-64
2022/01/12 15:08:44;;;;;;;;;;;6.00;99.90;;;;;;5051959;28;19919;-63
2022/01/12 15:11:10;;;;;;;;;;;6.10;99.90;;;;;;5065861;28;19912;-63
2022/01/12 15:13:55;;;;;;;;;;;6.00;99.90;;;;;;5063949;28;19912;-64
2022/01/12 15:16:20;;;;;;;;;;;6.00;99.90;;;;;;5060173;28;19920;-65
2022/01/12 15:18:46;;;;;;;;;;;6.00;99.90;;;;;;5058648;28;20298;-65
2022/01/12 15:21:12;;;;;;;;;;;6.00;99.90;;;;;;5057447;28;19924;-65
2022/01/12 15:23:37;;;;;;;;;;;6.10;99.90;;;;;;5056132;28;19920;-62
2022/01/12 15:26:03;;;;;;;;;;;6.10;99.90;;;;;;5058521;28;19963;-64
2022/01/12 15:28:30;;;;;;;;;;;6.00;99.90;;;;;;5058520;28;20385;-62
2022/01/12 15:30:55;;;;;;;;;;;6.10;99.90;;;;;;5060188;28;20273;-65
2022/01/12 15:33:21;;;;;;;;;;;6.10;99.90;;;;;;5070074;28;19920;-65
2022/01/12 15:35:46;;;;;;;;;;;6.10;99.90;;;;;;5054991;28;19913;-65
2022/01/12 15:38:12;;;;;;;;;;;6.10;99.90;;;;;;5058105;28;20285;-64
2022/01/12 15:40:38;;;;;;;;;;;6.00;99.90;;;;;;5058307;28;19923;-65
2022/01/12 15:43:04;;;;;;;;;;;6.00;99.90;;;;;;5061858;28;19920;-62
2022/01/12 15:45:32;;;;;;;;;;;6.00;99.90;;;;;;5068212;28;19916;-65